Time;durP1;ratioP1;P1;durP2;ratioP2;P2;SDS_P1;SDS_P2;PMS_P1;PMS_P2;Temp;Humidity;BMP_temperature;BMP_pressure;BME280_temperature;BME280_humidity;BME280_pressure;Samples;Min_cycle;Max_cycle;Signal;HPM_P1;HPM_P2
2022/07/15 00:01:08;;;;;;;0.55;0.47;;;;;;;;;;5030126;28;20077;-64
2022/07/15 00:03:38;;;;;;;0.22;0.22;;;;;;;;;;5029536;28;20049;-64
2022/07/15 00:06:09;;;;;;;0.20;0.20;;;;;;;;;;5028546;28;20524;-65
2022/07/15 00:08:37;;;;;;;0.35;0.35;;;;;;;;;;5019266;28;20124;-68
2022/07/15 00:11:09;;;;;;;0.63;0.63;;;;;;;;;;5030724;28;20060;-64
2022/07/15 00:13:37;;;;;;;0.38;0.38;;;;;;;;;;5030198;28;20057;-65
2022/07/15 00:16:09;;;;;;;0.40;0.40;;;;;;;;;;5031080;28;20053;-64
2022/07/15 00:18:39;;;;;;;0.40;0.32;;;;;;;;;;5029798;28;20124;-66
2022/07/15 00:21:07;;;;;;;0.35;0.30;;;;;;;;;;5029156;28;20447;-65
2022/07/15 00:23:36;;;;;;;0.57;0.38;;;;;;;;;;5028713;28;20405;-64
2022/07/15 00:26:07;;;;;;;1.10;0.38;;;;;;;;;;5021517;28;20128;-65
2022/07/15 00:28:36;;;;;;;0.20;0.10;;;;;;;;;;5029618;28;20118;-64
2022/07/15 00:31:07;;;;;;;0.20;0.20;;;;;;;;;;5025468;28;20081;-64
2022/07/15 00:33:36;;;;;;;0.10;0.10;;;;;;;;;;5026138;28;20045;-64
2022/07/15 00:36:09;;;;;;;0.15;0.15;;;;;;;;;;5029679;28;20493;-64
2022/07/15 00:38:37;;;;;;;0.88;0.55;;;;;;;;;;5020377;28;20132;-64
2022/07/15 00:41:06;;;;;;;0.65;0.40;;;;;;;;;;5043203;28;20124;-64
2022/07/15 00:43:34;;;;;;;0.52;0.38;;;;;;;;;;5032373;28;20046;-65
2022/07/15 00:46:06;;;;;;;0.10;0.10;;;;;;;;;;5032385;28;20076;-68
2022/07/15 00:48:35;;;;;;;0.38;0.38;;;;;;;;;;5002733;28;20053;-65
2022/07/15 00:51:07;;;;;;;0.50;0.50;;;;;;;;;;5004744;28;20480;-66
2022/07/15 00:53:37;;;;;;;0.25;0.25;;;;;;;;;;5016121;28;20041;-65
2022/07/15 00:56:10;;;;;;;0.30;0.30;;;;;;;;;;5011562;28;20133;-65
2022/07/15 00:58:39;;;;;;;0.30;0.30;;;;;;;;;;5014783;28;20469;-64
2022/07/15 01:01:08;;;;;;;0.32;0.32;;;;;;;;;;5018204;28;20088;-64
2022/07/15 01:03:38;;;;;;;1.25;0.88;;;;;;;;;;5006326;28;20124;-66
2022/07/15 01:06:09;;;;;;;0.95;0.95;;;;;;;;;;5020993;28;20042;-66
2022/07/15 01:08:39;;;;;;;1.30;0.90;;;;;;;;;;5029293;28;20396;-67
2022/07/15 01:11:07;;;;;;;0.28;0.28;;;;;;;;;;5028569;28;20805;-66
2022/07/15 01:13:36;;;;;;;0.80;0.73;;;;;;;;;;5029829;28;20045;-66
2022/07/15 01:16:07;;;;;;;0.75;0.52;;;;;;;;;;5030798;28;20400;-67
2022/07/15 01:18:36;;;;;;;0.47;0.47;;;;;;;;;;5030946;28;20069;-66
2022/07/15 01:21:08;;;;;;;0.85;0.85;;;;;;;;;;5026238;28;20059;-67
2022/07/15 01:23:40;;;;;;;0.45;0.30;;;;;;;;;;5026990;28;20460;-66
2022/07/15 01:26:08;;;;;;;0.73;0.50;;;;;;;;;;5029694;28;20137;-67
2022/07/15 01:28:37;;;;;;;0.30;0.30;;;;;;;;;;5031064;28;20409;-66
2022/07/15 01:31:08;;;;;;;1.58;0.57;;;;;;;;;;5031735;28;20045;-67
2022/07/15 01:33:38;;;;;;;1.25;0.60;;;;;;;;;;5034236;28;20048;-66
2022/07/15 01:36:08;;;;;;;0.88;0.60;;;;;;;;;;5028563;28;20080;-66
2022/07/15 01:38:37;;;;;;;0.65;0.65;;;;;;;;;;5037898;28;20125;-67
2022/07/15 01:41:15;;;;;;;2.83;1.05;;;;;;;;;;5030302;28;20064;-66
2022/07/15 01:43:44;;;;;;;1.55;0.30;;;;;;;;;;5030846;28;20631;-66
2022/07/15 01:46:12;;;;;;;0.68;0.50;;;;;;;;;;5029716;28;20095;-67
2022/07/15 01:51:24;;;;;;;1.17;0.38;;;;;;;;;;5018847;28;20095;-69
2022/07/15 01:53:53;;;;;;;0.63;0.63;;;;;;;;;;5040095;28;20055;-68
2022/07/15 01:56:21;;;;;;;0.38;0.20;;;;;;;;;;5036952;28;20125;-67
2022/07/15 01:58:49;;;;;;;0.22;0.22;;;;;;;;;;5038535;28;20102;-68
2022/07/15 02:01:18;;;;;;;1.27;0.55;;;;;;;;;;5036507;28;20042;-71
2022/07/15 02:03:46;;;;;;;0.65;0.52;;;;;;;;;;5032880;28;20455;-67
2022/07/15 02:06:15;;;;;;;1.73;0.65;;;;;;;;;;5045701;28;20077;-67
2022/07/15 02:08:45;;;;;;;1.10;0.43;;;;;;;;;;5032657;28;20124;-70
2022/07/15 02:11:13;;;;;;;0.30;0.25;;;;;;;;;;5033974;28;20085;-66
2022/07/15 02:13:42;;;;;;;1.08;0.93;;;;;;;;;;5030248;28;20045;-71
2022/07/15 02:16:10;;;;;;;0.35;0.28;;;;;;;;;;5037826;28;20479;-67
2022/07/15 02:18:39;;;;;;;0.50;0.32;;;;;;;;;;5041671;28;20072;-66
2022/07/15 02:21:07;;;;;;;0.82;0.68;;;;;;;;;;5032183;28;20405;-67
2022/07/15 02:23:36;;;;;;;0.45;0.30;;;;;;;;;;5046551;28;20108;-67
2022/07/15 02:26:08;;;;;;;1.55;0.73;;;;;;;;;;5031663;28;20141;-67
2022/07/15 02:28:37;;;;;;;1.25;0.47;;;;;;;;;;5037322;28;20125;-67
2022/07/15 02:31:08;;;;;;;1.05;0.43;;;;;;;;;;5037926;28;20544;-67
2022/07/15 02:33:36;;;;;;;0.43;0.32;;;;;;;;;;5030886;28;20081;-67
2022/07/15 02:36:08;;;;;;;0.65;0.43;;;;;;;;;;5031282;28;20087;-67
2022/07/15 02:38:36;;;;;;;0.20;0.20;;;;;;;;;;5042539;28;20475;-67
2022/07/15 02:41:11;;;;;;;0.68;0.25;;;;;;;;;;5042415;28;20056;-67
2022/07/15 02:43:41;;;;;;;0.20;0.20;;;;;;;;;;5029840;28;20400;-68
2022/07/15 02:46:10;;;;;;;0.85;0.30;;;;;;;;;;5031816;28;20181;-68
2022/07/15 02:48:39;;;;;;;0.10;0.10;;;;;;;;;;5030715;28;20049;-67
2022/07/15 02:51:07;;;;;;;0.10;0.10;;;;;;;;;;5039841;28;20088;-68
2022/07/15 02:53:36;;;;;;;0.13;0.13;;;;;;;;;;5038686;28;20075;-66
2022/07/15 02:56:09;;;;;;;0.20;0.20;;;;;;;;;;5027706;28;20167;-66
2022/07/15 02:58:38;;;;;;;0.25;0.25;;;;;;;;;;5035031;28;20037;-66
2022/07/15 03:01:09;;;;;;;0.13;0.13;;;;;;;;;;5034500;28;20139;-67
2022/07/15 03:03:38;;;;;;;0.30;0.20;;;;;;;;;;5042189;28;20051;-66
2022/07/15 03:06:09;;;;;;;0.30;0.20;;;;;;;;;;5032797;28;20088;-67
2022/07/15 03:08:37;;;;;;;0.98;0.32;;;;;;;;;;5034479;28;20067;-67
2022/07/15 03:11:10;;;;;;;0.63;0.30;;;;;;;;;;5031099;28;20080;-68
2022/07/15 03:13:39;;;;;;;0.05;0.05;;;;;;;;;;5042877;28;20049;-67
2022/07/15 03:16:08;;;;;;;0.20;0.20;;;;;;;;;;5038944;28;20164;-67
2022/07/15 03:18:36;;;;;;;0.45;0.30;;;;;;;;;;5036578;28;20120;-66
2022/07/15 03:21:07;;;;;;;0.08;0.08;;;;;;;;;;5033933;28;20386;-67
2022/07/15 03:23:36;;;;;;;0.65;0.35;;;;;;;;;;5029889;28;20132;-67
2022/07/15 03:26:07;;;;;;;0.30;0.25;;;;;;;;;;5035080;28;20508;-67
2022/07/15 03:28:37;;;;;;;0.20;0.20;;;;;;;;;;5023902;28;20138;-70
2022/07/15 03:31:08;;;;;;;0.10;0.10;;;;;;;;;;5027908;28;20055;-67
2022/07/15 03:33:37;;;;;;;0.20;0.20;;;;;;;;;;5030176;28;20046;-67
2022/07/15 03:36:08;;;;;;;0.10;0.10;;;;;;;;;;5034914;28;20049;-67
2022/07/15 03:38:37;;;;;;;0.20;0.20;;;;;;;;;;5031540;28;20132;-67
2022/07/15 03:41:08;;;;;;;0.73;0.40;;;;;;;;;;5007859;28;1116564;-67
2022/07/15 03:43:38;;;;;;;0.47;0.45;;;;;;;;;;5029337;28;20049;-67
2022/07/15 03:46:07;;;;;;;0.28;0.28;;;;;;;;;;5031047;28;20065;-67
2022/07/15 03:48:35;;;;;;;0.30;0.30;;;;;;;;;;5032978;28;20145;-67
2022/07/15 03:51:07;;;;;;;0.13;0.13;;;;;;;;;;5035307;28;20128;-67
2022/07/15 03:53:35;;;;;;;0.63;0.20;;;;;;;;;;5032409;28;20076;-67
2022/07/15 03:56:07;;;;;;;0.32;0.22;;;;;;;;;;5049361;28;20147;-67
2022/07/15 03:58:35;;;;;;;0.10;0.10;;;;;;;;;;5028791;28;20136;-67
2022/07/15 04:01:07;;;;;;;0.10;0.10;;;;;;;;;;5030023;28;20132;-67
2022/07/15 04:03:36;;;;;;;0.10;0.10;;;;;;;;;;5031453;28;20049;-67
2022/07/15 04:06:07;;;;;;;0.40;0.30;;;;;;;;;;5029973;28;20059;-72
2022/07/15 04:08:35;;;;;;;0.38;0.30;;;;;;;;;;5006072;28;20128;-68
2022/07/15 04:11:07;;;;;;;0.10;0.10;;;;;;;;;;5030218;28;20132;-67
2022/07/15 04:13:35;;;;;;;0.10;0.10;;;;;;;;;;5032356;28;20454;-67
2022/07/15 04:16:08;;;;;;;0.20;0.20;;;;;;;;;;5026899;28;20478;-67
2022/07/15 04:18:37;;;;;;;0.30;0.30;;;;;;;;;;5007265;28;20068;-68
2022/07/15 04:21:08;;;;;;;0.25;0.25;;;;;;;;;;5032971;28;20053;-67
2022/07/15 04:23:37;;;;;;;0.30;0.30;;;;;;;;;;5035119;28;20045;-68
2022/07/15 04:26:08;;;;;;;0.22;0.20;;;;;;;;;;5036244;28;20556;-68
2022/07/15 04:28:36;;;;;;;0.10;0.10;;;;;;;;;;5030035;28;20545;-72
2022/07/15 04:31:09;;;;;;;0.10;0.10;;;;;;;;;;5030238;28;20479;-68
2022/07/15 04:33:38;;;;;;;0.77;0.40;;;;;;;;;;5026040;28;20120;-68
2022/07/15 04:36:06;;;;;;;1.00;0.22;;;;;;;;;;5034337;28;20053;-68
2022/07/15 04:38:34;;;;;;;4.65;0.35;;;;;;;;;;5024420;28;20045;-67
2022/07/15 04:41:06;;;;;;;0.75;0.68;;;;;;;;;;5034848;28;20089;-67
2022/07/15 04:43:34;;;;;;;0.20;0.20;;;;;;;;;;5034821;28;20053;-67
2022/07/15 04:46:06;;;;;;;1.40;0.80;;;;;;;;;;5034784;28;20050;-67
2022/07/15 04:51:21;;;;;;;0.00;0.00;;;;;;;;;;4976702;28;20228;-69
2022/07/15 04:53:50;;;;;;;0.82;0.70;;;;;;;;;;4973450;28;20485;-69
2022/07/15 04:56:18;;;;;;;1.17;0.52;;;;;;;;;;4978319;28;20088;-68
2022/07/15 04:58:46;;;;;;;0.40;0.20;;;;;;;;;;4982205;28;20056;-67
2022/07/15 05:01:15;;;;;;;0.20;0.20;;;;;;;;;;4983135;28;20046;-67
2022/07/15 05:03:45;;;;;;;0.93;0.45;;;;;;;;;;4982087;28;20109;-68
2022/07/15 05:06:14;;;;;;;0.40;0.40;;;;;;;;;;4977585;28;20046;-67
2022/07/15 05:08:42;;;;;;;0.10;0.10;;;;;;;;;;4982421;28;20165;-67
2022/07/15 05:11:10;;;;;;;0.13;0.13;;;;;;;;;;4977878;28;20115;-66
2022/07/15 05:13:40;;;;;;;0.10;0.10;;;;;;;;;;5000270;28;20050;-67
2022/07/15 05:16:08;;;;;;;0.55;0.47;;;;;;;;;;5030236;28;20587;-69
2022/07/15 05:18:37;;;;;;;0.32;0.32;;;;;;;;;;5024876;28;20042;-67
2022/07/15 05:21:10;;;;;;;0.60;0.20;;;;;;;;;;5024827;28;20047;-67
2022/07/15 05:23:40;;;;;;;0.50;0.50;;;;;;;;;;5030837;28;20072;-67
2022/07/15 05:26:28;;;;;;;0.17;0.17;;;;;;;;;;5022372;28;20053;-69
2022/07/15 05:29:04;;;;;;;0.25;0.25;;;;;;;;;;5020315;28;20050;-66
2022/07/15 05:31:33;;;;;;;0.52;0.28;;;;;;;;;;5031833;28;20095;-67
2022/07/15 05:34:02;;;;;;;0.30;0.30;;;;;;;;;;5028356;28;20056;-67
2022/07/15 05:36:32;;;;;;;0.15;0.15;;;;;;;;;;5033912;28;20060;-66
2022/07/15 05:39:01;;;;;;;0.25;0.25;;;;;;;;;;5037632;28;20054;-66
2022/07/15 05:41:31;;;;;;;0.30;0.30;;;;;;;;;;5029226;28;20049;-66
2022/07/15 05:44:00;;;;;;;0.47;0.30;;;;;;;;;;5028219;28;20053;-67
2022/07/15 05:46:29;;;;;;;0.00;0.00;;;;;;;;;;5025241;28;20045;-66
2022/07/15 05:48:57;;;;;;;0.43;0.43;;;;;;;;;;5026535;28;20437;-66
2022/07/15 05:51:26;;;;;;;0.73;0.30;;;;;;;;;;5030227;28;20042;-67
2022/07/15 05:53:56;;;;;;;0.40;0.40;;;;;;;;;;5035830;28;20106;-66
2022/07/15 05:56:24;;;;;;;0.30;0.30;;;;;;;;;;5026263;28;20140;-66
2022/07/15 05:58:53;;;;;;;0.40;0.40;;;;;;;;;;5019154;28;20076;-66
2022/07/15 06:01:22;;;;;;;0.20;0.10;;;;;;;;;;5022272;28;20053;-66
2022/07/15 06:03:51;;;;;;;0.35;0.32;;;;;;;;;;5026991;28;20073;-66
2022/07/15 06:06:20;;;;;;;0.20;0.20;;;;;;;;;;5029245;28;20053;-66
2022/07/15 06:08:49;;;;;;;0.10;0.10;;;;;;;;;;5028260;28;20041;-66
2022/07/15 06:11:18;;;;;;;0.20;0.10;;;;;;;;;;5025228;28;20063;-66
2022/07/15 06:13:47;;;;;;;0.08;0.08;;;;;;;;;;5033740;28;20068;-65
2022/07/15 06:16:16;;;;;;;1.33;0.65;;;;;;;;;;5026772;28;20564;-66
2022/07/15 06:18:44;;;;;;;0.05;0.05;;;;;;;;;;5033413;28;20564;-65
2022/07/15 06:21:13;;;;;;;0.65;0.65;;;;;;;;;;5030747;28;20099;-66
2022/07/15 06:23:42;;;;;;;0.20;0.20;;;;;;;;;;5049531;28;20519;-66
2022/07/15 06:26:10;;;;;;;0.20;0.20;;;;;;;;;;5030833;28;20529;-67
2022/07/15 06:28:40;;;;;;;0.30;0.30;;;;;;;;;;5026477;28;20096;-66
2022/07/15 06:31:15;;;;;;;0.20;0.20;;;;;;;;;;5034714;28;20049;-66
2022/07/15 06:33:45;;;;;;;3.72;0.30;;;;;;;;;;5040671;28;20049;-67
2022/07/15 06:36:13;;;;;;;0.65;0.30;;;;;;;;;;5028685;28;20055;-67
2022/07/15 06:38:42;;;;;;;0.35;0.35;;;;;;;;;;5029378;28;20045;-66
2022/07/15 06:41:10;;;;;;;0.10;0.10;;;;;;;;;;5035639;28;20140;-66
2022/07/15 06:43:39;;;;;;;0.20;0.20;;;;;;;;;;5032005;28;20077;-67
2022/07/15 06:46:09;;;;;;;0.10;0.10;;;;;;;;;;5019797;28;20085;-67
2022/07/15 06:48:39;;;;;;;0.43;0.30;;;;;;;;;;5037277;28;20176;-67
2022/07/15 06:51:08;;;;;;;0.15;0.15;;;;;;;;;;5032733;28;20176;-68
2022/07/15 06:53:37;;;;;;;0.10;0.10;;;;;;;;;;5029156;28;20069;-66
2022/07/15 06:56:08;;;;;;;0.13;0.13;;;;;;;;;;5036703;28;20048;-66
2022/07/15 06:58:38;;;;;;;0.00;0.00;;;;;;;;;;5029416;28;20076;-68
2022/07/15 07:01:08;;;;;;;1.77;0.80;;;;;;;;;;5028872;28;20053;-66
2022/07/15 07:03:38;;;;;;;0.32;0.32;;;;;;;;;;5032720;28;20049;-67
2022/07/15 07:06:26;;;;;;;0.10;0.10;;;;;;;;;;5035491;28;20135;-67
2022/07/15 07:08:55;;;;;;;0.10;0.10;;;;;;;;;;5025755;28;20503;-65
2022/07/15 07:11:23;;;;;;;0.30;0.10;;;;;;;;;;5027852;28;20087;-67
2022/07/15 07:13:52;;;;;;;0.75;0.30;;;;;;;;;;5030217;28;20061;-68
2022/07/15 07:16:22;;;;;;;0.20;0.13;;;;;;;;;;5025872;28;20041;-69
2022/07/15 07:18:51;;;;;;;0.32;0.20;;;;;;;;;;5030281;28;20416;-67
2022/07/15 07:21:20;;;;;;;0.15;0.15;;;;;;;;;;5032389;28;20499;-67
2022/07/15 07:23:57;;;;;;;0.10;0.10;;;;;;;;;;5036269;28;20046;-68
2022/07/15 07:26:26;;;;;;;0.30;0.20;;;;;;;;;;5036623;28;20073;-68
2022/07/15 07:28:55;;;;;;;0.05;0.05;;;;;;;;;;5027408;28;20128;-67
2022/07/15 07:31:26;;;;;;;0.08;0.08;;;;;;;;;;5029394;28;20049;-68
2022/07/15 07:33:56;;;;;;;0.20;0.10;;;;;;;;;;5031852;28;20458;-66
2022/07/15 07:36:26;;;;;;;0.70;0.30;;;;;;;;;;5026376;28;20053;-67
2022/07/15 07:38:55;;;;;;;0.10;0.10;;;;;;;;;;5024341;28;20049;-68
2022/07/15 07:41:27;;;;;;;0.10;0.10;;;;;;;;;;5045759;28;20044;-67
2022/07/15 07:43:56;;;;;;;0.28;0.28;;;;;;;;;;5046723;28;20049;-67
2022/07/15 07:46:26;;;;;;;0.05;0.05;;;;;;;;;;5044196;28;20503;-66
2022/07/15 07:48:56;;;;;;;0.00;0.00;;;;;;;;;;5045773;28;20053;-66
2022/07/15 07:51:44;;;;;;;0.10;0.10;;;;;;;;;;5048143;28;20441;-69
2022/07/15 07:54:12;;;;;;;0.10;0.10;;;;;;;;;;5036851;28;20091;-66
2022/07/15 07:56:42;;;;;;;0.10;0.10;;;;;;;;;;5048356;28;20445;-66
2022/07/15 07:59:10;;;;;;;0.15;0.15;;;;;;;;;;5047020;28;20049;-69
2022/07/15 08:01:40;;;;;;;0.63;0.20;;;;;;;;;;5049857;28;20459;-66
2022/07/15 08:04:10;;;;;;;0.40;0.40;;;;;;;;;;5044438;28;20051;-65
2022/07/15 08:06:39;;;;;;;0.10;0.10;;;;;;;;;;5042537;28;20071;-65
2022/07/15 08:09:08;;;;;;;0.25;0.20;;;;;;;;;;5050610;28;20090;-66
2022/07/15 08:11:36;;;;;;;0.30;0.30;;;;;;;;;;5042414;28;20079;-66
2022/07/15 08:14:05;;;;;;;0.17;0.17;;;;;;;;;;5050715;28;20087;-65
2022/07/15 08:16:34;;;;;;;0.00;0.00;;;;;;;;;;5048412;28;20049;-65
2022/07/15 08:19:04;;;;;;;0.32;0.22;;;;;;;;;;5048178;28;20068;-66
2022/07/15 08:21:33;;;;;;;0.35;0.20;;;;;;;;;;5039714;28;20045;-65
2022/07/15 08:24:01;;;;;;;0.10;0.10;;;;;;;;;;5051099;28;20053;-66
2022/07/15 08:26:30;;;;;;;0.28;0.13;;;;;;;;;;5047789;28;20052;-65
2022/07/15 08:28:58;;;;;;;0.00;0.00;;;;;;;;;;5050966;28;20115;-67
2022/07/15 08:31:33;;;;;;;0.55;0.30;;;;;;;;;;5048576;28;20056;-66
2022/07/15 08:34:02;;;;;;;0.10;0.10;;;;;;;;;;5049307;28;20048;-64
2022/07/15 08:36:32;;;;;;;0.10;0.10;;;;;;;;;;5045509;28;20052;-69
2022/07/15 08:39:01;;;;;;;0.52;0.30;;;;;;;;;;5046778;28;20420;-66
2022/07/15 08:41:31;;;;;;;3.85;0.55;;;;;;;;;;5044877;28;20049;-69
2022/07/15 08:43:59;;;;;;;0.20;0.10;;;;;;;;;;5049199;28;20041;-68
2022/07/15 08:46:28;;;;;;;0.05;0.05;;;;;;;;;;5033153;28;20053;-67
2022/07/15 08:49:00;;;;;;;3.53;0.15;;;;;;;;;;5046233;28;20560;-66
2022/07/15 08:51:30;;;;;;;0.68;0.28;;;;;;;;;;5046290;28;20484;-65
2022/07/15 08:54:00;;;;;;;0.30;0.30;;;;;;;;;;5047776;28;20056;-66
2022/07/15 08:56:28;;;;;;;0.28;0.28;;;;;;;;;;5049845;28;20049;-66
2022/07/15 08:58:58;;;;;;;0.17;0.10;;;;;;;;;;5046954;28;20095;-65
2022/07/15 09:01:28;;;;;;;0.00;0.00;;;;;;;;;;5049074;28;20041;-66
2022/07/15 09:03:57;;;;;;;0.10;0.10;;;;;;;;;;5044685;28;20489;-66
2022/07/15 09:06:32;;;;;;;0.03;0.00;;;;;;;;;;5048030;28;20063;-65
2022/07/15 09:09:22;;;;;;;1.40;0.30;;;;;;;;;;5048508;28;20088;-65
2022/07/15 09:11:55;;;;;;;0.20;0.20;;;;;;;;;;5042028;28;20045;-67
2022/07/15 09:14:32;;;;;;;0.20;0.20;;;;;;;;;;5039848;28;20069;-67
2022/07/15 09:17:06;;;;;;;1.00;0.20;;;;;;;;;;5040434;28;20136;-65
2022/07/15 09:19:50;;;;;;;0.10;0.10;;;;;;;;;;5045718;28;20045;-66
2022/07/15 09:22:19;;;;;;;0.10;0.10;;;;;;;;;;5046724;28;20068;-66
2022/07/15 09:25:02;;;;;;;0.98;0.30;;;;;;;;;;5045975;28;20045;-66
2022/07/15 09:27:31;;;;;;;0.28;0.20;;;;;;;;;;5048823;28;20037;-65
2022/07/15 09:36:05;;;;;;;0.28;0.13;;;;;;;;;;5047501;28;20166;-68
2022/07/15 09:38:35;;;;;;;0.68;0.55;;;;;;;;;;5038485;28;20042;-69
2022/07/15 09:41:09;;;;;;;1.20;0.45;;;;;;;;;;5048518;28;20095;-68
2022/07/15 09:43:45;;;;;;;0.28;0.20;;;;;;;;;;5046948;28;20079;-69
2022/07/15 09:46:13;;;;;;;0.35;0.35;;;;;;;;;;5037224;28;20053;-69
2022/07/15 09:48:43;;;;;;;1.30;0.50;;;;;;;;;;5051061;28;20041;-68
2022/07/15 09:51:13;;;;;;;0.20;0.20;;;;;;;;;;5044664;28;20392;-68
2022/07/15 09:53:41;;;;;;;0.10;0.10;;;;;;;;;;5042465;28;20544;-68
2022/07/15 09:56:12;;;;;;;0.10;0.10;;;;;;;;;;5037854;28;20048;-68
2022/07/15 09:58:41;;;;;;;0.35;0.35;;;;;;;;;;5045318;28;20041;-68
2022/07/15 10:01:10;;;;;;;0.25;0.20;;;;;;;;;;5043339;28;20492;-68
2022/07/15 10:03:40;;;;;;;0.20;0.20;;;;;;;;;;5045173;28;20049;-68
2022/07/15 10:06:10;;;;;;;3.40;0.57;;;;;;;;;;5046854;28;20067;-69
2022/07/15 10:08:39;;;;;;;0.30;0.30;;;;;;;;;;5030193;28;20053;-69
2022/07/15 10:11:11;;;;;;;0.85;0.13;;;;;;;;;;5044745;28;20130;-69
2022/07/15 10:13:57;;;;;;;0.35;0.15;;;;;;;;;;5045101;28;20056;-69
2022/07/15 10:16:32;;;;;;;0.22;0.20;;;;;;;;;;5008752;28;20045;-70
2022/07/15 10:19:07;;;;;;;1.00;0.50;;;;;;;;;;5043579;28;20049;-69
2022/07/15 10:21:36;;;;;;;;;;;;;;;;;;5047377;28;20057;-68
2022/07/15 10:24:11;;;;;;;0.22;0.10;;;;;;;;;;5045652;28;20015;-69
2022/07/15 10:26:55;;;;;;;0.30;0.30;;;;;;;;;;5049039;28;20055;-70
2022/07/15 10:29:24;;;;;;;0.63;0.50;;;;;;;;;;5039792;28;20065;-68
2022/07/15 10:32:00;;;;;;;2.88;0.40;;;;;;;;;;5041254;28;20138;-70
2022/07/15 10:34:32;;;;;;;0.45;0.40;;;;;;;;;;5045968;28;20048;-69
2022/07/15 10:37:07;;;;;;;1.02;0.60;;;;;;;;;;5052008;28;20087;-69
2022/07/15 10:39:53;;;;;;;1.48;0.43;;;;;;;;;;5045414;28;20060;-69
2022/07/15 10:42:23;;;;;;;0.25;0.25;;;;;;;;;;5051072;28;20440;-66
2022/07/15 10:45:07;;;;;;;1.58;0.30;;;;;;;;;;5048480;28;20058;-67
2022/07/15 10:47:36;;;;;;;0.28;0.28;;;;;;;;;;5047323;28;20128;-67
2022/07/15 10:50:19;;;;;;;2.15;0.65;;;;;;;;;;5050663;28;20063;-67
2022/07/15 10:52:48;;;;;;;0.43;0.38;;;;;;;;;;5048089;28;20056;-68
2022/07/15 10:55:22;;;;;;;3.83;0.20;;;;;;;;;;5049196;28;20091;-67
2022/07/15 10:57:56;;;;;;;0.30;0.30;;;;;;;;;;5049391;28;20052;-67
2022/07/15 11:00:29;;;;;;;3.00;0.50;;;;;;;;;;5051323;28;20408;-68
2022/07/15 11:03:05;;;;;;;0.43;0.40;;;;;;;;;;5047944;28;20135;-67
2022/07/15 11:05:34;;;;;;;1.10;0.55;;;;;;;;;;5044456;28;20507;-67
2022/07/15 11:08:23;;;;;;;0.70;0.45;;;;;;;;;;5047951;28;20072;-67
2022/07/15 11:10:51;;;;;;;0.65;0.40;;;;;;;;;;5044433;28;20072;-64
2022/07/15 11:13:33;;;;;;;0.32;0.32;;;;;;;;;;5048477;28;20057;-64
2022/07/15 11:16:02;;;;;;;3.38;0.30;;;;;;;;;;5046779;28;20168;-64
2022/07/15 11:18:46;;;;;;;0.28;0.28;;;;;;;;;;5049290;28;20080;-64
2022/07/15 11:21:15;;;;;;;0.20;0.20;;;;;;;;;;5048760;28;20439;-66
2022/07/15 11:23:45;;;;;;;0.30;0.30;;;;;;;;;;5045427;28;20065;-65
2022/07/15 11:26:13;;;;;;;0.30;0.30;;;;;;;;;;5047959;28;20048;-65
2022/07/15 11:28:51;;;;;;;0.60;0.40;;;;;;;;;;5043889;28;20036;-65
2022/07/15 11:31:20;;;;;;;1.65;0.65;;;;;;;;;;5044278;28;20106;-65
2022/07/15 11:33:48;;;;;;;0.50;0.50;;;;;;;;;;5050684;28;20125;-66
2022/07/15 11:36:18;;;;;;;0.35;0.20;;;;;;;;;;5047225;28;20492;-65
2022/07/15 11:38:47;;;;;;;0.45;0.32;;;;;;;;;;5047637;28;20076;-66
2022/07/15 11:46:57;;;;;;;0.70;0.50;;;;;;;;;;5014375;28;20073;-66
2022/07/15 11:49:27;;;;;;;0.80;0.57;;;;;;;;;;5023652;28;20047;-65
2022/07/15 11:51:56;;;;;;;0.90;0.45;;;;;;;;;;5028026;28;20045;-67
2022/07/15 11:54:25;;;;;;;0.77;0.60;;;;;;;;;;5031443;28;20401;-65
2022/07/15 11:56:54;;;;;;;0.68;0.47;;;;;;;;;;5025402;28;20045;-65
2022/07/15 11:59:24;;;;;;;0.32;0.30;;;;;;;;;;5026601;28;20481;-67
2022/07/15 12:02:01;;;;;;;0.80;0.52;;;;;;;;;;5030896;28;20496;-66
2022/07/15 12:04:30;;;;;;;1.85;0.40;;;;;;;;;;5018484;28;20050;-67
2022/07/15 12:06:59;;;;;;;1.05;0.70;;;;;;;;;;5030010;28;20061;-65
2022/07/15 12:09:27;;;;;;;1.27;0.52;;;;;;;;;;5027427;28;20041;-65
2022/07/15 12:11:56;;;;;;;0.75;0.35;;;;;;;;;;5026915;28;20046;-66
2022/07/15 12:14:26;;;;;;;0.30;0.30;;;;;;;;;;5029100;28;20042;-65
2022/07/15 12:16:56;;;;;;;0.50;0.50;;;;;;;;;;5025042;28;20041;-65
2022/07/15 12:19:26;;;;;;;0.70;0.45;;;;;;;;;;5024720;28;20092;-65
2022/07/15 12:21:56;;;;;;;3.78;0.68;;;;;;;;;;5020799;28;20052;-65
2022/07/15 12:24:27;;;;;;;1.25;0.57;;;;;;;;;;5026577;28;20072;-65
2022/07/15 12:26:59;;;;;;;0.75;0.63;;;;;;;;;;5024467;28;20040;-66
2022/07/15 12:29:30;;;;;;;6.57;0.60;;;;;;;;;;5029434;28;20048;-65
2022/07/15 12:32:19;;;;;;;3.17;0.45;;;;;;;;;;5024098;28;20739;-65
2022/07/15 12:34:52;;;;;;;1.02;0.57;;;;;;;;;;5030313;28;20063;-66
2022/07/15 12:37:22;;;;;;;1.60;0.60;;;;;;;;;;5014773;28;20057;-68
2022/07/15 12:40:01;;;;;;;0.73;0.38;;;;;;;;;;5037300;28;20053;-69
2022/07/15 12:42:31;;;;;;;1.92;0.45;;;;;;;;;;5025932;28;20049;-67
2022/07/15 12:45:14;;;;;;;1.42;0.63;;;;;;;;;;5031003;28;20072;-65
2022/07/15 12:48:01;;;;;;;1.60;0.50;;;;;;;;;;5026142;28;20053;-65
2022/07/15 12:50:30;;;;;;;0.28;0.20;;;;;;;;;;5014500;28;21649;-66
2022/07/15 12:53:00;;;;;;;0.90;0.68;;;;;;;;;;5026277;28;20480;-67
2022/07/15 12:55:29;;;;;;;0.80;0.63;;;;;;;;;;5030428;28;20050;-65
2022/07/15 12:58:05;;;;;;;1.92;0.50;;;;;;;;;;5026035;28;20045;-65
2022/07/15 13:00:35;;;;;;;0.80;0.68;;;;;;;;;;5026857;28;20049;-66
2022/07/15 13:03:05;;;;;;;0.80;0.50;;;;;;;;;;5013801;28;20202;-65
2022/07/15 13:05:37;;;;;;;3.90;0.80;;;;;;;;;;5029837;28;20052;-65
2022/07/15 13:08:06;;;;;;;0.52;0.52;;;;;;;;;;5033769;28;20048;-65
2022/07/15 13:10:34;;;;;;;0.60;0.50;;;;;;;;;;5027483;28;20511;-65
2022/07/15 13:13:03;;;;;;;0.73;0.38;;;;;;;;;;5022704;28;20097;-66
2022/07/15 13:15:31;;;;;;;2.60;0.55;;;;;;;;;;5033618;28;20069;-66
2022/07/15 13:18:01;;;;;;;0.82;0.50;;;;;;;;;;5028482;28;20045;-66
2022/07/15 13:20:30;;;;;;;0.57;0.35;;;;;;;;;;5025832;28;20088;-66
2022/07/15 13:22:59;;;;;;;0.90;0.40;;;;;;;;;;5028792;28;20133;-66
2022/07/15 13:25:27;;;;;;;0.43;0.15;;;;;;;;;;5024827;28;20060;-65
2022/07/15 13:27:57;;;;;;;3.72;0.82;;;;;;;;;;5027024;28;20452;-65
2022/07/15 13:30:25;;;;;;;0.52;0.22;;;;;;;;;;5019595;28;20188;-65
2022/07/15 13:32:54;;;;;;;1.48;0.50;;;;;;;;;;5024298;28;20057;-66
2022/07/15 13:35:23;;;;;;;0.75;0.45;;;;;;;;;;5027265;28;20077;-65
2022/07/15 13:37:52;;;;;;;1.35;0.40;;;;;;;;;;5020485;28;20065;-68
2022/07/15 13:40:21;;;;;;;1.00;0.50;;;;;;;;;;5019889;28;20501;-68
2022/07/15 13:42:50;;;;;;;0.52;0.52;;;;;;;;;;5029274;28;20049;-68
2022/07/15 13:45:18;;;;;;;0.43;0.43;;;;;;;;;;5038172;28;20045;-68
2022/07/15 13:47:47;;;;;;;0.40;0.30;;;;;;;;;;5025111;28;20497;-69
2022/07/15 13:53:03;;;;;;;1.38;0.70;;;;;;;;;;5023442;28;20107;-69
2022/07/15 13:55:31;;;;;;;0.82;0.32;;;;;;;;;;5028554;28;20049;-69
2022/07/15 13:58:00;;;;;;;0.93;0.47;;;;;;;;;;5025002;28;20967;-68
2022/07/15 14:00:28;;;;;;;1.50;0.70;;;;;;;;;;5029827;28;20474;-69
2022/07/15 14:02:57;;;;;;;0.38;0.38;;;;;;;;;;5028674;28;20045;-70
2022/07/15 14:05:26;;;;;;;1.83;0.95;;;;;;;;;;5029573;28;20060;-68
2022/07/15 14:07:55;;;;;;;0.73;0.40;;;;;;;;;;5027738;28;20041;-68
2022/07/15 14:10:25;;;;;;;0.40;0.40;;;;;;;;;;5032160;28;20077;-68
2022/07/15 14:12:54;;;;;;;0.68;0.50;;;;;;;;;;5027228;28;20100;-70
2022/07/15 14:15:22;;;;;;;1.15;0.50;;;;;;;;;;5029193;28;20072;-69
2022/07/15 14:17:58;;;;;;;0.63;0.60;;;;;;;;;;5029416;28;20053;-69
2022/07/15 14:20:26;;;;;;;0.85;0.43;;;;;;;;;;5043009;28;20080;-70
2022/07/15 14:22:55;;;;;;;1.02;0.57;;;;;;;;;;5027758;28;20539;-69
2022/07/15 14:25:25;;;;;;;0.30;0.30;;;;;;;;;;5027740;28;20550;-69
2022/07/15 14:27:54;;;;;;;1.27;0.40;;;;;;;;;;5027881;28;20123;-69
2022/07/15 14:30:23;;;;;;;1.05;0.70;;;;;;;;;;5028153;28;20692;-69
2022/07/15 14:32:54;;;;;;;1.08;0.60;;;;;;;;;;5027886;28;20077;-68
2022/07/15 14:35:22;;;;;;;0.50;0.50;;;;;;;;;;5027932;28;20041;-68
2022/07/15 14:37:51;;;;;;;2.75;0.93;;;;;;;;;;5025614;28;20051;-69
2022/07/15 14:40:20;;;;;;;0.70;0.40;;;;;;;;;;5036442;28;21879;-68
2022/07/15 14:42:50;;;;;;;0.47;0.47;;;;;;;;;;5029363;28;20072;-68
2022/07/15 14:45:19;;;;;;;0.65;0.40;;;;;;;;;;5030077;28;20049;-68
2022/07/15 14:47:48;;;;;;;0.52;0.47;;;;;;;;;;5030219;28;20048;-68
2022/07/15 14:50:16;;;;;;;1.15;0.60;;;;;;;;;;5029440;28;20378;-68
2022/07/15 14:52:50;;;;;;;0.67;0.50;;;;;;;;;;5030029;28;20045;-68
2022/07/15 14:55:18;;;;;;;0.57;0.47;;;;;;;;;;5036643;28;20050;-68
2022/07/15 14:57:47;;;;;;;0.55;0.50;;;;;;;;;;5034058;28;20103;-68
2022/07/15 15:00:17;;;;;;;1.75;1.30;;;;;;;;;;5036681;28;20527;-68
2022/07/15 15:02:46;;;;;;;0.98;0.55;;;;;;;;;;5032217;28;20041;-69
2022/07/15 15:05:15;;;;;;;0.43;0.35;;;;;;;;;;5023405;28;20136;-69
2022/07/15 15:07:43;;;;;;;0.50;0.50;;;;;;;;;;5031794;28;20061;-68
2022/07/15 15:10:13;;;;;;;0.75;0.55;;;;;;;;;;5028999;28;20132;-68
2022/07/15 15:12:41;;;;;;;1.08;1.00;;;;;;;;;;5026200;28;20132;-69
2022/07/15 15:15:10;;;;;;;2.15;0.85;;;;;;;;;;5031900;28;20041;-68
2022/07/15 15:17:40;;;;;;;1.00;0.50;;;;;;;;;;5024378;28;20521;-69
2022/07/15 15:20:10;;;;;;;0.43;0.43;;;;;;;;;;5032196;28;20473;-69
2022/07/15 15:22:39;;;;;;;0.45;0.35;;;;;;;;;;5033854;28;20053;-68